sensor_id;sensor_type;location;lat;lon;timestamp;pressure;altitude;pressure_sealevel;temperature;humidity
77141;BME280;66277;50.988;11.322;2022-12-29T00:01:40;98155.09;;;8.71;62.51
77141;BME280;66277;50.988;11.322;2022-12-29T00:04:06;98151.19;;;8.63;62.65
77141;BME280;66277;50.988;11.322;2022-12-29T00:06:31;98174.25;;;8.67;62.73
77141;BME280;66277;50.988;11.322;2022-12-29T00:08:57;98158.72;;;8.67;62.47
77141;BME280;66277;50.988;11.322;2022-12-29T00:11:25;98144.28;;;8.62;62.73
77141;BME280;66277;50.988;11.322;2022-12-29T00:13:51;98148.63;;;8.61;62.53
77141;BME280;66277;50.988;11.322;2022-12-29T00:16:37;98143.66;;;8.57;62.91
77141;BME280;66277;50.988;11.322;2022-12-29T00:19:04;98131.75;;;8.53;62.98
77141;BME280;66277;50.988;11.322;2022-12-29T00:21:30;98138.88;;;8.48;62.94
77141;BME280;66277;50.988;11.322;2022-12-29T00:24:18;98138.22;;;8.42;63.26
77141;BME280;66277;50.988;11.322;2022-12-29T00:26:49;98129.44;;;8.47;63.47
77141;BME280;66277;50.988;11.322;2022-12-29T00:29:36;98124.28;;;8.47;63.48
77141;BME280;66277;50.988;11.322;2022-12-29T00:32:20;98131.44;;;8.40;63.89
77141;BME280;66277;50.988;11.322;2022-12-29T00:35:06;98119.47;;;8.37;64.00
77141;BME280;66277;50.988;11.322;2022-12-29T00:37:37;98159.56;;;8.48;63.61
77141;BME280;66277;50.988;11.322;2022-12-29T00:40:23;98133.78;;;8.46;64.10
77141;BME280;66277;50.988;11.322;2022-12-29T00:43:07;98124.31;;;8.45;64.12
77141;BME280;66277;50.988;11.322;2022-12-29T00:45:51;98142.41;;;8.45;64.04
77141;BME280;66277;50.988;11.322;2022-12-29T00:48:16;98130.16;;;8.50;64.04
77141;BME280;66277;50.988;11.322;2022-12-29T00:51:01;98119.59;;;8.55;64.02
77141;BME280;66277;50.988;11.322;2022-12-29T00:53:27;98125.13;;;8.47;64.52
77141;BME280;66277;50.988;11.322;2022-12-29T00:55:52;98105.63;;;8.59;64.28
77141;BME280;66277;50.988;11.322;2022-12-29T00:58:18;98116.25;;;8.53;64.76
77141;BME280;66277;50.988;11.322;2022-12-29T01:00:43;98117.72;;;8.58;64.51
77141;BME280;66277;50.988;11.322;2022-12-29T01:03:08;98106.47;;;8.59;64.48
77141;BME280;66277;50.988;11.322;2022-12-29T01:05:36;98114.44;;;8.55;64.94
77141;BME280;66277;50.988;11.322;2022-12-29T01:08:02;98103.44;;;8.50;65.15
77141;BME280;66277;50.988;11.322;2022-12-29T01:10:27;98110.31;;;8.51;65.26
77141;BME280;66277;50.988;11.322;2022-12-29T01:12:53;98097.38;;;8.51;64.92
77141;BME280;66277;50.988;11.322;2022-12-29T01:15:18;98091.22;;;8.53;65.12
77141;BME280;66277;50.988;11.322;2022-12-29T01:17:44;98089.81;;;8.46;65.23
77141;BME280;66277;50.988;11.322;2022-12-29T01:20:10;98104.34;;;8.49;65.43
77141;BME280;66277;50.988;11.322;2022-12-29T01:22:36;98109.59;;;8.47;65.20
77141;BME280;66277;50.988;11.322;2022-12-29T01:25:02;98095.69;;;8.50;65.37
77141;BME280;66277;50.988;11.322;2022-12-29T01:27:27;98128.84;;;8.60;64.73
77141;BME280;66277;50.988;11.322;2022-12-29T01:29:53;98096.13;;;8.59;64.93
77141;BME280;66277;50.988;11.322;2022-12-29T01:32:18;98080.16;;;8.50;65.20
77141;BME280;66277;50.988;11.322;2022-12-29T01:34:44;98088.63;;;8.53;65.19
77141;BME280;66277;50.988;11.322;2022-12-29T01:37:10;98094.25;;;8.63;65.08
77141;BME280;66277;50.988;11.322;2022-12-29T01:39:35;98098.47;;;8.65;65.10
77141;BME280;66277;50.988;11.322;2022-12-29T01:42:01;98097.53;;;8.66;65.12
77141;BME280;66277;50.988;11.322;2022-12-29T01:44:50;98106.66;;;8.75;65.11
77141;BME280;66277;50.988;11.322;2022-12-29T01:47:23;98110.59;;;8.84;64.88
77141;BME280;66277;50.988;11.322;2022-12-29T01:49:54;98119.41;;;8.80;64.85
77141;BME280;66277;50.988;11.322;2022-12-29T01:52:22;98115.25;;;8.76;65.31
77141;BME280;66277;50.988;11.322;2022-12-29T01:54:51;98118.34;;;8.84;65.12
77141;BME280;66277;50.988;11.322;2022-12-29T01:57:24;98108.56;;;8.90;65.02
77141;BME280;66277;50.988;11.322;2022-12-29T02:00:02;98112.75;;;8.93;65.23
77141;BME280;66277;50.988;11.322;2022-12-29T02:02:29;98109.41;;;8.91;65.35
77141;BME280;66277;50.988;11.322;2022-12-29T02:04:57;98111.91;;;8.92;65.57
77141;BME280;66277;50.988;11.322;2022-12-29T02:07:26;98096.38;;;8.92;65.41
77141;BME280;66277;50.988;11.322;2022-12-29T02:09:54;98088.44;;;8.97;65.18
77141;BME280;66277;50.988;11.322;2022-12-29T02:12:21;98105.50;;;9.01;65.10
77141;BME280;66277;50.988;11.322;2022-12-29T02:14:50;98091.78;;;8.99;64.98
77141;BME280;66277;50.988;11.322;2022-12-29T02:17:51;98092.78;;;8.96;64.92
77141;BME280;66277;50.988;11.322;2022-12-29T02:20:35;98064.84;;;9.03;64.89
77141;BME280;66277;50.988;11.322;2022-12-29T02:23:17;98075.00;;;9.08;65.18
77141;BME280;66277;50.988;11.322;2022-12-29T02:26:07;98081.00;;;9.08;64.75
77141;BME280;66277;50.988;11.322;2022-12-29T02:32:06;98074.84;;;9.11;64.98
77141;BME280;66277;50.988;11.322;2022-12-29T02:34:49;98036.94;;;9.10;65.07
77141;BME280;66277;50.988;11.322;2022-12-29T02:37:41;98024.91;;;9.09;64.84
77141;BME280;66277;50.988;11.322;2022-12-29T02:40:28;98034.00;;;8.98;65.30
77141;BME280;66277;50.988;11.322;2022-12-29T02:46:07;98035.31;;;8.88;65.99
77141;BME280;66277;50.988;11.322;2022-12-29T02:48:43;98013.72;;;8.89;66.31
77141;BME280;66277;50.988;11.322;2022-12-29T02:51:18;98024.44;;;8.82;66.87
77141;BME280;66277;50.988;11.322;2022-12-29T02:53:45;98013.56;;;8.73;66.96
77141;BME280;66277;50.988;11.322;2022-12-29T02:56:29;97999.03;;;8.71;67.44
77141;BME280;66277;50.988;11.322;2022-12-29T02:58:55;98015.66;;;8.65;67.85
77141;BME280;66277;50.988;11.322;2022-12-29T03:01:33;98039.09;;;8.62;68.16
77141;BME280;66277;50.988;11.322;2022-12-29T03:10:04;98010.81;;;8.58;68.98
77141;BME280;66277;50.988;11.322;2022-12-29T03:12:49;98002.28;;;8.56;69.31
77141;BME280;66277;50.988;11.322;2022-12-29T03:15:50;98027.53;;;8.51;69.65
77141;BME280;66277;50.988;11.322;2022-12-29T03:18:41;97997.19;;;8.54;69.60
77141;BME280;66277;50.988;11.322;2022-12-29T03:24:42;98002.56;;;8.50;70.22
77141;BME280;66277;50.988;11.322;2022-12-29T03:27:10;98008.66;;;8.49;70.47
77141;BME280;66277;50.988;11.322;2022-12-29T03:29:46;98033.63;;;8.50;70.13
77141;BME280;66277;50.988;11.322;2022-12-29T03:32:13;98016.84;;;8.58;70.44
77141;BME280;66277;50.988;11.322;2022-12-29T03:34:40;98028.78;;;8.61;70.57
77141;BME280;66277;50.988;11.322;2022-12-29T03:37:29;98040.56;;;8.68;70.29
77141;BME280;66277;50.988;11.322;2022-12-29T03:39:56;98039.78;;;8.66;70.47
77141;BME280;66277;50.988;11.322;2022-12-29T03:42:25;98048.72;;;8.59;70.65
77141;BME280;66277;50.988;11.322;2022-12-29T03:44:54;98060.56;;;8.64;70.60
77141;BME280;66277;50.988;11.322;2022-12-29T03:47:21;98075.09;;;8.67;70.71
77141;BME280;66277;50.988;11.322;2022-12-29T03:49:48;98105.88;;;8.73;70.64
77141;BME280;66277;50.988;11.322;2022-12-29T03:52:14;98082.34;;;8.79;70.43
77141;BME280;66277;50.988;11.322;2022-12-29T03:54:39;98058.00;;;8.83;70.68
77141;BME280;66277;50.988;11.322;2022-12-29T03:57:05;98063.94;;;8.85;70.78
77141;BME280;66277;50.988;11.322;2022-12-29T03:59:30;98067.22;;;8.89;70.88
77141;BME280;66277;50.988;11.322;2022-12-29T04:01:56;98065.53;;;8.88;70.80
77141;BME280;66277;50.988;11.322;2022-12-29T04:04:21;98092.72;;;8.98;70.92
77141;BME280;66277;50.988;11.322;2022-12-29T04:06:47;98085.72;;;9.00;70.82
77141;BME280;66277;50.988;11.322;2022-12-29T04:09:13;98055.56;;;8.99;70.70
77141;BME280;66277;50.988;11.322;2022-12-29T04:11:38;98072.00;;;8.98;71.23
77141;BME280;66277;50.988;11.322;2022-12-29T04:14:04;98071.16;;;8.97;71.22
77141;BME280;66277;50.988;11.322;2022-12-29T04:16:29;98073.59;;;9.00;71.27
77141;BME280;66277;50.988;11.322;2022-12-29T04:18:55;98074.31;;;9.04;71.34
77141;BME280;66277;50.988;11.322;2022-12-29T04:21:20;98078.34;;;9.10;71.54
77141;BME280;66277;50.988;11.322;2022-12-29T04:23:46;98075.00;;;9.08;71.42
77141;BME280;66277;50.988;11.322;2022-12-29T04:26:11;98048.84;;;9.14;71.52
77141;BME280;66277;50.988;11.322;2022-12-29T04:28:37;98036.38;;;9.03;71.81
77141;BME280;66277;50.988;11.322;2022-12-29T04:31:04;98035.94;;;8.93;71.79
77141;BME280;66277;50.988;11.322;2022-12-29T04:33:30;98023.50;;;8.83;72.24
77141;BME280;66277;50.988;11.322;2022-12-29T04:35:55;98019.66;;;8.72;72.35
77141;BME280;66277;50.988;11.322;2022-12-29T04:38:22;98026.03;;;8.65;72.47
77141;BME280;66277;50.988;11.322;2022-12-29T04:40:49;98040.03;;;8.60;72.87
77141;BME280;66277;50.988;11.322;2022-12-29T04:43:15;98018.44;;;8.61;72.76
77141;BME280;66277;50.988;11.322;2022-12-29T04:45:48;98027.84;;;8.63;72.98
77141;BME280;66277;50.988;11.322;2022-12-29T04:48:14;98030.22;;;8.68;72.59
77141;BME280;66277;50.988;11.322;2022-12-29T04:50:41;98013.56;;;8.73;72.30
77141;BME280;66277;50.988;11.322;2022-12-29T04:53:06;97991.19;;;8.72;72.21
77141;BME280;66277;50.988;11.322;2022-12-29T04:55:32;98032.25;;;8.80;71.77
77141;BME280;66277;50.988;11.322;2022-12-29T04:57:58;98035.69;;;8.81;71.99
77141;BME280;66277;50.988;11.322;2022-12-29T05:00:23;98028.75;;;8.81;71.87
77141;BME280;66277;50.988;11.322;2022-12-29T05:02:49;98044.41;;;8.78;71.97
77141;BME280;66277;50.988;11.322;2022-12-29T05:05:14;98032.19;;;8.82;71.88
77141;BME280;66277;50.988;11.322;2022-12-29T05:07:40;98021.69;;;8.85;71.63
77141;BME280;66277;50.988;11.322;2022-12-29T05:10:06;98024.22;;;8.86;71.51
77141;BME280;66277;50.988;11.322;2022-12-29T05:12:34;98029.84;;;8.94;71.58
77141;BME280;66277;50.988;11.322;2022-12-29T05:15:00;98019.16;;;9.02;71.26
77141;BME280;66277;50.988;11.322;2022-12-29T05:17:25;98018.13;;;9.06;70.89
77141;BME280;66277;50.988;11.322;2022-12-29T05:19:51;98014.69;;;9.06;71.19
77141;BME280;66277;50.988;11.322;2022-12-29T05:22:17;98007.69;;;9.08;71.18
77141;BME280;66277;50.988;11.322;2022-12-29T05:24:42;98022.19;;;9.12;71.17
77141;BME280;66277;50.988;11.322;2022-12-29T05:27:08;98011.84;;;9.12;71.11
77141;BME280;66277;50.988;11.322;2022-12-29T05:29:33;98003.06;;;9.14;70.83
77141;BME280;66277;50.988;11.322;2022-12-29T05:31:59;97997.91;;;9.14;71.27
77141;BME280;66277;50.988;11.322;2022-12-29T05:34:24;97993.25;;;9.21;71.15
77141;BME280;66277;50.988;11.322;2022-12-29T05:36:50;97995.84;;;9.21;71.29
77141;BME280;66277;50.988;11.322;2022-12-29T05:39:16;98005.06;;;9.26;71.31
77141;BME280;66277;50.988;11.322;2022-12-29T05:41:41;98000.53;;;9.31;71.42
77141;BME280;66277;50.988;11.322;2022-12-29T05:44:07;98002.91;;;9.36;71.40
77141;BME280;66277;50.988;11.322;2022-12-29T05:46:32;98007.25;;;9.36;71.37
77141;BME280;66277;50.988;11.322;2022-12-29T05:48:58;98000.78;;;9.44;70.94
77141;BME280;66277;50.988;11.322;2022-12-29T05:51:23;98000.41;;;9.52;70.82
77141;BME280;66277;50.988;11.322;2022-12-29T05:53:49;97988.22;;;9.54;70.34
77141;BME280;66277;50.988;11.322;2022-12-29T05:56:14;97997.81;;;9.52;70.88
77141;BME280;66277;50.988;11.322;2022-12-29T05:58:40;97989.81;;;9.56;71.04
77141;BME280;66277;50.988;11.322;2022-12-29T06:01:05;97981.06;;;9.59;70.98
77141;BME280;66277;50.988;11.322;2022-12-29T06:03:31;97977.34;;;9.65;70.79
77141;BME280;66277;50.988;11.322;2022-12-29T06:05:56;97975.91;;;9.76;70.59
77141;BME280;66277;50.988;11.322;2022-12-29T06:08:22;97976.19;;;9.87;70.22
77141;BME280;66277;50.988;11.322;2022-12-29T06:10:47;97990.75;;;9.90;70.21
77141;BME280;66277;50.988;11.322;2022-12-29T06:13:12;97973.31;;;9.93;69.94
77141;BME280;66277;50.988;11.322;2022-12-29T06:15:38;97966.44;;;9.92;70.08
77141;BME280;66277;50.988;11.322;2022-12-29T06:18:03;97937.63;;;9.81;70.20
77141;BME280;66277;50.988;11.322;2022-12-29T06:20:29;97942.06;;;9.79;70.46
77141;BME280;66277;50.988;11.322;2022-12-29T06:22:54;97944.00;;;9.74;70.75
77141;BME280;66277;50.988;11.322;2022-12-29T06:25:20;97968.34;;;9.72;70.62
77141;BME280;66277;50.988;11.322;2022-12-29T06:27:45;97959.03;;;9.68;70.46
77141;BME280;66277;50.988;11.322;2022-12-29T06:30:11;97949.28;;;9.73;70.31
77141;BME280;66277;50.988;11.322;2022-12-29T06:32:37;97955.47;;;9.70;70.21
77141;BME280;66277;50.988;11.322;2022-12-29T06:35:03;97951.19;;;9.69;70.20
77141;BME280;66277;50.988;11.322;2022-12-29T06:37:29;97955.00;;;9.62;70.25
77141;BME280;66277;50.988;11.322;2022-12-29T06:39:55;97951.72;;;9.58;70.05
77141;BME280;66277;50.988;11.322;2022-12-29T06:42:20;97964.75;;;9.57;70.23
77141;BME280;66277;50.988;11.322;2022-12-29T06:44:46;97969.25;;;9.71;69.49
77141;BME280;66277;50.988;11.322;2022-12-29T06:47:11;97963.53;;;9.81;68.88
77141;BME280;66277;50.988;11.322;2022-12-29T06:49:37;97963.72;;;9.78;68.99
77141;BME280;66277;50.988;11.322;2022-12-29T06:52:03;97948.00;;;9.81;68.88
77141;BME280;66277;50.988;11.322;2022-12-29T06:54:30;97990.06;;;9.86;68.24
77141;BME280;66277;50.988;11.322;2022-12-29T06:56:56;97966.81;;;10.02;67.90
77141;BME280;66277;50.988;11.322;2022-12-29T06:59:21;97961.16;;;10.11;67.73
77141;BME280;66277;50.988;11.322;2022-12-29T07:01:47;97962.59;;;10.17;67.59
77141;BME280;66277;50.988;11.322;2022-12-29T07:04:12;97960.84;;;10.17;67.69
77141;BME280;66277;50.988;11.322;2022-12-29T07:06:38;97969.69;;;10.31;67.09
77141;BME280;66277;50.988;11.322;2022-12-29T07:09:06;97962.00;;;10.29;67.32
77141;BME280;66277;50.988;11.322;2022-12-29T07:11:31;97969.25;;;10.22;67.50
77141;BME280;66277;50.988;11.322;2022-12-29T07:13:57;97954.88;;;10.15;67.78
77141;BME280;66277;50.988;11.322;2022-12-29T07:16:22;97961.16;;;10.11;68.29
77141;BME280;66277;50.988;11.322;2022-12-29T07:18:48;97962.75;;;10.14;67.74
77141;BME280;66277;50.988;11.322;2022-12-29T07:21:13;97975.72;;;10.14;67.75
77141;BME280;66277;50.988;11.322;2022-12-29T07:23:39;97981.06;;;10.11;67.77
77141;BME280;66277;50.988;11.322;2022-12-29T07:26:07;97987.47;;;10.21;67.20
77141;BME280;66277;50.988;11.322;2022-12-29T07:28:35;97971.28;;;10.33;66.92
77141;BME280;66277;50.988;11.322;2022-12-29T07:31:01;97979.75;;;10.37;66.88
77141;BME280;66277;50.988;11.322;2022-12-29T07:33:29;97979.22;;;10.30;67.26
77141;BME280;66277;50.988;11.322;2022-12-29T07:35:55;97975.47;;;10.36;66.79
77141;BME280;66277;50.988;11.322;2022-12-29T07:38:21;97969.38;;;10.37;66.76
77141;BME280;66277;50.988;11.322;2022-12-29T07:40:46;97986.75;;;10.35;66.79
77141;BME280;66277;50.988;11.322;2022-12-29T07:43:12;97973.53;;;10.39;66.73
77141;BME280;66277;50.988;11.322;2022-12-29T07:45:37;97982.03;;;10.43;66.54
77141;BME280;66277;50.988;11.322;2022-12-29T07:48:04;97995.50;;;10.49;66.52
77141;BME280;66277;50.988;11.322;2022-12-29T07:50:33;97990.06;;;10.54;66.36
77141;BME280;66277;50.988;11.322;2022-12-29T07:52:59;98017.47;;;10.60;66.15
77141;BME280;66277;50.988;11.322;2022-12-29T07:55:24;98005.16;;;10.63;66.30
77141;BME280;66277;50.988;11.322;2022-12-29T07:57:53;98002.56;;;10.63;66.50
77141;BME280;66277;50.988;11.322;2022-12-29T08:00:18;98005.34;;;10.60;66.56
77141;BME280;66277;50.988;11.322;2022-12-29T08:02:44;98010.28;;;10.65;66.33
77141;BME280;66277;50.988;11.322;2022-12-29T08:05:09;98026.59;;;10.67;66.46
77141;BME280;66277;50.988;11.322;2022-12-29T08:07:35;98008.09;;;10.73;66.21
77141;BME280;66277;50.988;11.322;2022-12-29T08:10:00;98045.16;;;10.76;66.02
77141;BME280;66277;50.988;11.322;2022-12-29T08:12:26;98025.13;;;10.78;65.91
77141;BME280;66277;50.988;11.322;2022-12-29T08:14:52;98020.19;;;10.74;66.25
77141;BME280;66277;50.988;11.322;2022-12-29T08:17:17;98015.22;;;10.69;66.70
77141;BME280;66277;50.988;11.322;2022-12-29T08:19:43;98038.66;;;10.68;66.47
77141;BME280;66277;50.988;11.322;2022-12-29T08:22:08;98015.06;;;10.72;66.58
77141;BME280;66277;50.988;11.322;2022-12-29T08:24:34;98011.53;;;10.73;66.40
77141;BME280;66277;50.988;11.322;2022-12-29T08:27:00;98008.72;;;10.78;66.18
77141;BME280;66277;50.988;11.322;2022-12-29T08:29:26;97999.81;;;10.66;66.73
77141;BME280;66277;50.988;11.322;2022-12-29T08:31:51;98001.00;;;10.76;66.39
77141;BME280;66277;50.988;11.322;2022-12-29T08:34:17;98014.66;;;10.80;66.06
77141;BME280;66277;50.988;11.322;2022-12-29T08:36:42;97995.22;;;10.87;65.60
77141;BME280;66277;50.988;11.322;2022-12-29T08:39:08;98000.34;;;10.89;65.40
77141;BME280;66277;50.988;11.322;2022-12-29T08:41:33;98001.03;;;10.92;65.12
77141;BME280;66277;50.988;11.322;2022-12-29T08:43:59;98002.34;;;10.99;64.98
77141;BME280;66277;50.988;11.322;2022-12-29T08:46:24;98022.56;;;11.10;64.63
77141;BME280;66277;50.988;11.322;2022-12-29T08:48:50;98004.47;;;11.24;64.03
77141;BME280;66277;50.988;11.322;2022-12-29T08:51:15;98019.03;;;11.27;63.95
77141;BME280;66277;50.988;11.322;2022-12-29T08:53:42;97999.19;;;11.26;63.73
77141;BME280;66277;50.988;11.322;2022-12-29T08:56:08;98003.69;;;11.22;63.84
77141;BME280;66277;50.988;11.322;2022-12-29T08:58:34;98000.94;;;11.25;63.64
77141;BME280;66277;50.988;11.322;2022-12-29T09:00:59;97993.91;;;11.27;63.72
77141;BME280;66277;50.988;11.322;2022-12-29T09:03:25;97995.75;;;11.25;64.03
77141;BME280;66277;50.988;11.322;2022-12-29T09:05:54;98018.78;;;11.31;63.76
77141;BME280;66277;50.988;11.322;2022-12-29T09:08:20;98006.81;;;11.29;63.67
77141;BME280;66277;50.988;11.322;2022-12-29T09:10:46;98012.41;;;11.37;63.58
77141;BME280;66277;50.988;11.322;2022-12-29T09:13:13;98017.19;;;11.45;63.59
77141;BME280;66277;50.988;11.322;2022-12-29T09:15:38;98031.78;;;11.47;63.44
77141;BME280;66277;50.988;11.322;2022-12-29T09:18:05;98014.06;;;11.38;63.88
77141;BME280;66277;50.988;11.322;2022-12-29T09:20:30;98016.84;;;11.35;63.89
77141;BME280;66277;50.988;11.322;2022-12-29T09:22:56;98022.97;;;11.34;63.96
77141;BME280;66277;50.988;11.322;2022-12-29T09:25:21;98061.69;;;11.38;63.65
77141;BME280;66277;50.988;11.322;2022-12-29T09:27:50;98037.63;;;11.35;63.82
77141;BME280;66277;50.988;11.322;2022-12-29T09:30:18;98040.06;;;11.38;63.88
77141;BME280;66277;50.988;11.322;2022-12-29T09:32:44;98040.97;;;11.37;63.82
77141;BME280;66277;50.988;11.322;2022-12-29T09:35:09;98030.94;;;11.31;64.00
77141;BME280;66277;50.988;11.322;2022-12-29T09:37:35;98035.97;;;11.34;63.98
77141;BME280;66277;50.988;11.322;2022-12-29T09:40:03;98033.53;;;11.47;63.60
77141;BME280;66277;50.988;11.322;2022-12-29T09:42:38;98021.81;;;11.39;63.77
77141;BME280;66277;50.988;11.322;2022-12-29T09:45:12;98014.00;;;11.39;63.76
77141;BME280;66277;50.988;11.322;2022-12-29T09:47:40;98020.38;;;11.34;64.00
77141;BME280;66277;50.988;11.322;2022-12-29T09:50:26;98027.16;;;11.36;64.15
77141;BME280;66277;50.988;11.322;2022-12-29T09:53:15;98021.88;;;11.38;64.11
77141;BME280;66277;50.988;11.322;2022-12-29T09:55:49;98039.06;;;11.40;64.20
77141;BME280;66277;50.988;11.322;2022-12-29T09:58:19;98017.00;;;11.48;63.05
77141;BME280;66277;50.988;11.322;2022-12-29T10:01:07;98006.63;;;11.48;62.81
77141;BME280;66277;50.988;11.322;2022-12-29T10:03:51;98005.97;;;11.44;62.94
77141;BME280;66277;50.988;11.322;2022-12-29T10:20:15;97995.16;;;11.82;61.54
77141;BME280;66277;50.988;11.322;2022-12-29T10:25:38;98025.00;;;12.20;60.08
77141;BME280;66277;50.988;11.322;2022-12-29T10:28:15;98003.56;;;12.01;60.54
77141;BME280;66277;50.988;11.322;2022-12-29T10:30:43;98039.78;;;11.90;60.47
77141;BME280;66277;50.988;11.322;2022-12-29T10:33:18;98028.47;;;11.91;60.74
77141;BME280;66277;50.988;11.322;2022-12-29T10:35:46;98010.72;;;11.97;60.42
77141;BME280;66277;50.988;11.322;2022-12-29T10:38:45;98016.34;;;12.06;60.24
77141;BME280;66277;50.988;11.322;2022-12-29T10:41:26;98037.53;;;12.14;59.57
77141;BME280;66277;50.988;11.322;2022-12-29T10:43:54;97985.31;;;12.17;59.58
77141;BME280;66277;50.988;11.322;2022-12-29T10:46:30;97999.44;;;12.13;59.54
77141;BME280;66277;50.988;11.322;2022-12-29T10:48:58;98006.59;;;12.23;59.39
77141;BME280;66277;50.988;11.322;2022-12-29T10:51:30;98022.88;;;12.27;59.20
77141;BME280;66277;50.988;11.322;2022-12-29T10:54:06;98028.13;;;12.11;59.92
77141;BME280;66277;50.988;11.322;2022-12-29T10:56:40;98039.75;;;12.06;60.11
77141;BME280;66277;50.988;11.322;2022-12-29T10:59:22;97997.72;;;11.97;60.52
77141;BME280;66277;50.988;11.322;2022-12-29T11:07:19;98017.31;;;11.89;61.35
77141;BME280;66277;50.988;11.322;2022-12-29T11:09:46;97999.94;;;11.89;61.30
77141;BME280;66277;50.988;11.322;2022-12-29T11:12:25;98001.06;;;11.99;60.63
77141;BME280;66277;50.988;11.322;2022-12-29T11:17:49;98015.50;;;12.19;60.13
77141;BME280;66277;50.988;11.322;2022-12-29T11:20:34;98013.88;;;12.61;58.71
77141;BME280;66277;50.988;11.322;2022-12-29T11:23:01;98015.53;;;12.90;57.80
77141;BME280;66277;50.988;11.322;2022-12-29T11:25:28;98002.72;;;13.70;55.61
77141;BME280;66277;50.988;11.322;2022-12-29T11:28:15;98052.25;;;13.14;56.72
77141;BME280;66277;50.988;11.322;2022-12-29T11:30:41;98074.50;;;12.63;58.24
77141;BME280;66277;50.988;11.322;2022-12-29T11:33:08;97998.25;;;12.47;58.91
77141;BME280;66277;50.988;11.322;2022-12-29T11:35:41;98007.63;;;12.21;59.54
77141;BME280;66277;50.988;11.322;2022-12-29T11:38:22;97995.28;;;12.24;59.66
77141;BME280;66277;50.988;11.322;2022-12-29T11:40:51;98029.13;;;12.53;59.06
77141;BME280;66277;50.988;11.322;2022-12-29T11:43:38;97989.06;;;12.55;58.65
77141;BME280;66277;50.988;11.322;2022-12-29T11:46:05;98038.09;;;12.33;59.24
77141;BME280;66277;50.988;11.322;2022-12-29T11:48:39;98007.69;;;12.19;59.46
77141;BME280;66277;50.988;11.322;2022-12-29T11:51:06;98007.34;;;12.25;59.75
77141;BME280;66277;50.988;11.322;2022-12-29T11:53:39;98009.75;;;12.14;59.91
77141;BME280;66277;50.988;11.322;2022-12-29T11:56:08;98009.88;;;11.97;61.77
77141;BME280;66277;50.988;11.322;2022-12-29T11:58:36;98021.00;;;11.53;64.69
77141;BME280;66277;50.988;11.322;2022-12-29T12:01:06;97996.50;;;11.27;66.21
77141;BME280;66277;50.988;11.322;2022-12-29T12:03:38;98024.25;;;11.11;65.64
77141;BME280;66277;50.988;11.322;2022-12-29T12:06:12;98011.84;;;11.16;65.55
77141;BME280;66277;50.988;11.322;2022-12-29T12:09:02;98005.63;;;11.19;65.45
77141;BME280;66277;50.988;11.322;2022-12-29T12:11:34;98001.28;;;11.19;65.44
77141;BME280;66277;50.988;11.322;2022-12-29T12:14:40;98008.84;;;11.24;64.97
77141;BME280;66277;50.988;11.322;2022-12-29T12:17:15;98023.72;;;11.36;63.83
77141;BME280;66277;50.988;11.322;2022-12-29T12:19:52;98002.69;;;11.40;63.31
77141;BME280;66277;50.988;11.322;2022-12-29T12:23:02;98028.81;;;11.53;62.86
77141;BME280;66277;50.988;11.322;2022-12-29T12:25:57;97999.78;;;11.77;61.52
77141;BME280;66277;50.988;11.322;2022-12-29T12:28:35;98015.09;;;11.97;60.42
77141;BME280;66277;50.988;11.322;2022-12-29T12:31:11;98007.38;;;11.95;60.22
77141;BME280;66277;50.988;11.322;2022-12-29T12:33:47;98027.25;;;11.96;60.53
77141;BME280;66277;50.988;11.322;2022-12-29T12:47:18;98016.66;;;11.54;62.06
77141;BME280;66277;50.988;11.322;2022-12-29T12:58:08;98049.69;;;11.36;63.14
77141;BME280;66277;50.988;11.322;2022-12-29T13:03:38;98017.88;;;11.17;63.79
77141;BME280;66277;50.988;11.322;2022-12-29T13:06:26;98014.59;;;11.29;63.50
77141;BME280;66277;50.988;11.322;2022-12-29T13:09:03;98016.44;;;12.18;60.09
77141;BME280;66277;50.988;11.322;2022-12-29T13:12:01;98007.34;;;13.52;55.62
77141;BME280;66277;50.988;11.322;2022-12-29T13:14:43;98022.44;;;12.91;56.58
77141;BME280;66277;50.988;11.322;2022-12-29T13:17:22;98024.06;;;13.35;55.41
77141;BME280;66277;50.988;11.322;2022-12-29T13:28:30;98016.81;;;14.32;51.81
77141;BME280;66277;50.988;11.322;2022-12-29T13:31:00;98029.22;;;14.16;52.44
77141;BME280;66277;50.988;11.322;2022-12-29T13:36:38;98033.66;;;13.35;54.30
77141;BME280;66277;50.988;11.322;2022-12-29T13:39:15;98036.19;;;12.79;56.10
77141;BME280;66277;50.988;11.322;2022-12-29T13:41:49;98041.72;;;12.30;57.49
77141;BME280;66277;50.988;11.322;2022-12-29T13:44:24;98052.09;;;11.86;58.74
77141;BME280;66277;50.988;11.322;2022-12-29T13:46:53;98061.44;;;11.59;59.01
77141;BME280;66277;50.988;11.322;2022-12-29T13:49:21;98052.63;;;11.61;59.20
77141;BME280;66277;50.988;11.322;2022-12-29T13:51:55;98048.75;;;11.68;59.03
77141;BME280;66277;50.988;11.322;2022-12-29T13:54:43;98066.56;;;11.45;59.21
77141;BME280;66277;50.988;11.322;2022-12-29T13:57:38;98088.84;;;11.33;59.36
77141;BME280;66277;50.988;11.322;2022-12-29T14:00:13;98071.31;;;11.21;59.21
77141;BME280;66277;50.988;11.322;2022-12-29T14:07:42;98081.22;;;11.14;59.41
77141;BME280;66277;50.988;11.322;2022-12-29T14:15:45;98074.84;;;11.67;57.25
77141;BME280;66277;50.988;11.322;2022-12-29T14:18:20;98102.47;;;12.15;55.39
77141;BME280;66277;50.988;11.322;2022-12-29T14:20:58;98089.19;;;12.20;54.61
77141;BME280;66277;50.988;11.322;2022-12-29T14:23:45;98089.94;;;12.80;52.88
77141;BME280;66277;50.988;11.322;2022-12-29T14:26:35;98096.75;;;12.83;52.78
77141;BME280;66277;50.988;11.322;2022-12-29T14:29:53;98106.81;;;12.89;52.39
77141;BME280;66277;50.988;11.322;2022-12-29T14:34:51;98103.28;;;12.90;52.60
77141;BME280;66277;50.988;11.322;2022-12-29T14:37:36;98101.78;;;12.27;53.90
77141;BME280;66277;50.988;11.322;2022-12-29T14:40:19;98103.25;;;12.01;54.26
77141;BME280;66277;50.988;11.322;2022-12-29T14:42:50;98101.44;;;11.72;54.68